Portada
METAR-TAF:

METAR-TAF

Aeroports :

Mount Carmel Municipal Airport

Mount Carmel, Illinois, Estats Units d'Amèrica

latitud: 38-36-23N, longitud: 087-43-36W, altitud: 131 m

Observació

L'informe es va fer fa 28 minuts, a les 23:15 UTC
Vent 12 kt del Nord-Oest amb ràfegues de 20 kt
Temperatura 25°C
Humitat 39%
Pressió 1016 hPa
Visibilitat: 16.1 km
Cel clar

METAR: KAJG 292315Z AUTO 32012G20KT 10SM CLR 25/10 A3001 RMK AO2 T02500104

Hora: 18:43 (23:43 UTC)


TAF: manca

Observacions i pronòstics meteorològics de més de 4000 aeroports (METAR i TAF).

Les estacions disponibles són els punts grocs i vermells al mapa.

Posi el ratolí al punt desitjat per veure el nom de l'estació.

Feu clic per veure les observacions i els pronòstics meteorològics.

Per canviar el mapa: feu clic els botons verds amb una creu de color negre per apropar; al botó verd amb un guió per allunyar la imatge; o en les fletxes verdes per a mapes adjacents.


METAR-TAF: